Time;durP1;ratioP1;P1;durP2;ratioP2;P2;SDS_P1;SDS_P2;PMS_P1;PMS_P2;Temp;Humidity;BMP_temperature;BMP_pressure;BME280_temperature;BME280_humidity;BME280_pressure;Samples;Min_cycle;Max_cycle;Signal;HPM_P1;HPM_P2
2023/10/12 00:11:08;;;;;;;22.20;11.07;;;21.70;72.90;;;;;;6214899;23;20024;-76
2023/10/12 00:13:41;;;;;;;17.67;10.68;;;21.60;72.30;;;;;;6214504;23;20008;-74
2023/10/12 00:16:06;;;;;;;15.10;10.00;;;21.60;72.20;;;;;;6214663;23;20013;-77
2023/10/12 00:18:35;;;;;;;20.73;11.60;;;21.70;72.20;;;;;;6212683;23;20001;-75
2023/10/12 00:21:08;;;;;;;16.67;10.52;;;21.70;72.00;;;;;;6214521;23;20009;-75
2023/10/12 00:23:35;;;;;;;21.27;10.25;;;21.60;72.10;;;;;;6214631;23;20001;-75
2023/10/12 00:26:05;;;;;;;18.42;9.75;;;21.60;72.10;;;;;;6215339;23;20331;-76
2023/10/12 00:28:38;;;;;;;17.27;10.55;;;21.60;71.90;;;;;;6213358;23;20063;-75
2023/10/12 00:31:12;;;;;;;23.67;10.83;;;21.60;71.80;;;;;;6215063;23;20004;-74
2023/10/12 00:33:38;;;;;;;22.20;11.23;;;21.60;71.80;;;;;;6214825;23;20534;-74
2023/10/12 00:36:05;;;;;;;22.40;10.13;;;21.50;71.70;;;;;;6214476;23;20001;-76
2023/10/12 00:38:31;;;;;;;18.92;10.77;;;21.50;71.80;;;;;;6215023;23;20005;-76
2023/10/12 00:41:02;;;;;;;20.40;10.57;;;21.50;71.60;;;;;;6214934;23;20010;-78
2023/10/12 00:43:35;;;;;;;18.42;10.02;;;21.50;71.50;;;;;;6215041;23;20335;-75
2023/10/12 00:48:49;;;;;;;18.05;9.88;;;21.40;71.60;;;;;;6214827;23;20096;-77
2023/10/12 00:51:18;;;;;;;20.05;11.13;;;21.40;72.00;;;;;;6219162;23;20505;-76
2023/10/12 00:53:55;;;;;;;17.45;9.75;;;21.30;71.70;;;;;;6235507;23;19992;-76
2023/10/12 00:56:26;;;;;;;16.48;9.40;;;21.30;71.60;;;;;;6191886;23;20450;-76
2023/10/12 00:58:55;;;;;;;19.73;9.93;;;21.30;71.60;;;;;;6221694;23;20048;-74
2023/10/12 01:01:21;;;;;;;19.92;9.93;;;21.30;71.80;;;;;;6227738;23;20009;-75
2023/10/12 01:03:47;;;;;;;15.82;10.20;;;21.30;71.80;;;;;;6219248;23;20056;-77
2023/10/12 01:06:27;;;;;;;17.38;9.93;;;21.30;71.60;;;;;;6190384;23;19996;-76
2023/10/12 01:08:58;;;;;;;17.75;9.68;;;21.30;71.60;;;;;;6210702;23;20335;-74
2023/10/12 01:11:26;;;;;;;18.70;9.63;;;21.30;71.40;;;;;;6184677;23;20013;-76
2023/10/12 01:16:42;;;;;;;20.38;9.43;;;21.30;71.50;;;;;;6186076;23;20016;-76
2023/10/12 01:19:08;;;;;;;18.87;10.13;;;21.30;71.50;;;;;;6185047;23;20013;-76
2023/10/12 01:21:37;;;;;;;21.23;9.80;;;21.20;71.50;;;;;;6184881;23;20420;-76
2023/10/12 01:24:12;;;;;;;24.77;10.55;;;21.20;71.60;;;;;;6184906;23;20008;-75
2023/10/12 01:26:43;;;;;;;19.27;10.18;;;21.20;71.90;;;;;;6184400;23;19998;-68
2023/10/12 01:29:19;;;;;;;19.02;10.38;;;21.10;71.50;;;;;;6184813;23;20012;-75
2023/10/12 01:31:51;;;;;;;20.50;10.02;;;21.20;71.90;;;;;;6184734;23;20061;-75
2023/10/12 01:34:17;;;;;;;18.20;10.65;;;21.20;71.80;;;;;;6184663;23;20009;-75
2023/10/12 01:36:43;;;;;;;20.30;10.02;;;21.10;71.80;;;;;;6184256;23;20388;-76
2023/10/12 01:39:12;;;;;;;18.75;10.60;;;21.10;71.90;;;;;;6184895;23;20028;-76
2023/10/12 01:41:40;;;;;;;24.23;11.50;;;21.00;71.80;;;;;;6183960;23;20004;-75
2023/10/12 01:44:13;;;;;;;21.05;10.10;;;21.00;72.00;;;;;;6184455;23;20483;-75
2023/10/12 01:46:40;;;;;;;18.60;9.80;;;21.00;72.60;;;;;;6184009;23;20097;-75
2023/10/12 01:49:11;;;;;;;17.40;9.93;;;21.00;71.90;;;;;;6184308;23;20001;-75
2023/10/12 01:51:45;;;;;;;18.42;10.32;;;21.00;71.90;;;;;;6184121;23;20008;-74
2023/10/12 01:54:22;;;;;;;17.58;10.85;;;21.00;71.80;;;;;;6184241;23;20013;-75
2023/10/12 01:56:52;;;;;;;17.30;10.20;;;21.00;71.90;;;;;;6184023;23;20005;-76
2023/10/12 01:59:20;;;;;;;21.70;10.73;;;21.00;71.60;;;;;;6184144;23;20075;-76
2023/10/12 02:01:59;;;;;;;24.10;11.05;;;21.00;71.80;;;;;;6184016;23;20431;-75
2023/10/12 02:04:25;;;;;;;18.60;9.93;;;20.90;71.70;;;;;;6184277;23;20008;-76
2023/10/12 02:06:52;;;;;;;24.20;10.70;;;20.90;72.00;;;;;;6186119;23;20001;-76
2023/10/12 02:09:22;;;;;;;18.63;10.77;;;20.90;71.90;;;;;;6185753;23;20443;-75
2023/10/12 02:11:53;;;;;;;19.02;11.05;;;20.80;71.90;;;;;;6185892;23;20001;-75
2023/10/12 02:14:32;;;;;;;17.65;11.23;;;20.80;72.10;;;;;;6186157;23;20016;-76
2023/10/12 02:17:02;;;;;;;19.15;11.07;;;20.80;72.10;;;;;;6186143;23;20006;-76
2023/10/12 02:19:32;;;;;;;21.80;10.98;;;20.80;72.40;;;;;;6185751;23;20024;-76
2023/10/12 02:22:01;;;;;;;25.67;11.68;;;20.70;72.60;;;;;;6185895;23;20012;-76
2023/10/12 02:24:26;;;;;;;18.92;11.57;;;20.70;73.60;;;;;;6186171;23;20027;-76
2023/10/12 02:26:52;;;;;;;20.20;10.70;;;20.60;73.10;;;;;;6185990;23;20439;-76
2023/10/12 02:29:18;;;;;;;18.52;11.07;;;20.50;73.10;;;;;;6185905;23;20001;-75
2023/10/12 02:34:18;;;;;;;18.08;10.93;;;20.50;73.40;;;;;;6186525;23;20019;-76
2023/10/12 02:39:37;;;;;;;20.52;11.20;;;20.50;74.00;;;;;;6185822;23;20064;-74
2023/10/12 02:47:23;;;;;;;22.90;10.00;;;20.50;73.90;;;;;;6185904;23;20013;-74
2023/10/12 02:49:50;;;;;;;16.38;9.82;;;20.60;73.00;;;;;;6185458;23;20011;-74
2023/10/12 02:52:16;;;;;;;21.85;9.57;;;20.60;72.80;;;;;;6185546;23;20097;-75
2023/10/12 02:54:52;;;;;;;19.83;9.85;;;20.60;72.80;;;;;;6185550;23;20043;-76
2023/10/12 02:57:24;;;;;;;16.83;9.25;;;20.60;72.40;;;;;;6185611;23;20020;-76
2023/10/12 03:00:13;;;;;;;16.67;9.13;;;20.60;72.20;;;;;;6186072;23;20013;-75
2023/10/12 03:02:44;;;;;;;16.42;8.35;;;20.60;71.90;;;;;;6185398;23;20012;-75
2023/10/12 03:05:17;;;;;;;17.38;8.18;;;20.50;72.30;;;;;;6160594;23;20055;-75
2023/10/12 03:07:44;;;;;;;16.70;8.53;;;20.60;71.60;;;;;;6208480;23;20000;-75
2023/10/12 03:10:26;;;;;;;13.13;8.00;;;20.60;71.30;;;;;;6203946;23;20025;-76
2023/10/12 03:12:55;;;;;;;15.25;8.55;;;20.50;71.00;;;;;;6186402;23;20009;-75
2023/10/12 03:15:33;;;;;;;16.10;8.65;;;20.60;71.10;;;;;;6185438;23;20009;-75
2023/10/12 03:17:58;;;;;;;20.65;8.35;;;20.60;71.20;;;;;;6184930;23;20009;-75
2023/10/12 03:20:28;;;;;;;15.48;8.77;;;20.60;71.10;;;;;;6185576;23;20122;-75
2023/10/12 03:22:59;;;;;;;16.55;9.23;;;20.60;70.90;;;;;;6185205;23;20005;-76
2023/10/12 03:25:43;;;;;;;20.60;9.73;;;20.60;70.90;;;;;;6188926;23;20001;-74
2023/10/12 03:28:13;;;;;;;18.83;8.65;;;20.60;71.10;;;;;;6191634;23;20457;-76
2023/10/12 03:30:53;;;;;;;16.77;8.90;;;20.50;71.60;;;;;;6185989;23;20005;-75
2023/10/12 03:33:28;;;;;;;19.88;8.18;;;20.50;71.20;;;;;;6185677;23;20001;-75
2023/10/12 03:36:17;;;;;;;18.38;8.95;;;20.50;71.10;;;;;;6185844;23;20063;-75
2023/10/12 03:38:43;;;;;;;17.38;8.65;;;20.50;71.10;;;;;;6206961;23;20473;-75
2023/10/12 03:44:11;;;;;;;16.20;8.27;;;20.50;71.30;;;;;;6134581;23;20344;-74
2023/10/12 03:46:45;;;;;;;16.42;9.48;;;20.50;71.00;;;;;;6215171;23;20024;-74
2023/10/12 03:51:57;;;;;;;17.48;9.23;;;20.40;71.30;;;;;;6215429;23;20357;-76
2023/10/12 03:54:29;;;;;;;21.42;9.02;;;20.30;71.10;;;;;;6215595;23;20378;-75
2023/10/12 03:57:06;;;;;;;15.48;8.80;;;20.30;71.10;;;;;;6215549;23;20079;-75
2023/10/12 03:59:44;;;;;;;18.02;9.02;;;20.30;71.00;;;;;;6215706;23;20020;-76
2023/10/12 04:02:15;;;;;;;19.58;9.60;;;20.30;71.10;;;;;;6215973;23;20020;-76
2023/10/12 04:04:59;;;;;;;15.88;8.95;;;20.20;70.90;;;;;;6215302;23;20008;-75
2023/10/12 04:07:39;;;;;;;21.80;9.30;;;20.20;71.30;;;;;;6215019;23;20009;-76
2023/10/12 04:10:41;;;;;;;17.50;9.05;;;20.20;71.20;;;;;;6182929;23;20024;-75
2023/10/12 04:13:07;;;;;;;20.35;9.55;;;20.10;71.50;;;;;;6184936;23;20020;-74
2023/10/12 04:16:05;;;;;;;14.20;8.90;;;20.20;71.50;;;;;;6185338;23;20391;-75
2023/10/12 04:18:19;;;;;;;15.73;9.30;;;20.20;70.90;;;;;;6184660;23;20005;-75
2023/10/12 04:20:45;;;;;;;18.15;8.93;;;20.10;71.20;;;;;;6184888;23;20060;-75
2023/10/12 04:25:46;;;;;;;15.95;8.65;;;20.10;71.30;;;;;;6186683;23;20043;-74
2023/10/12 04:28:23;;;;;;;19.20;8.27;;;20.10;71.30;;;;;;6185123;23;20051;-76
2023/10/12 04:33:24;;;;;;;;;;;20.10;70.70;;;;;;6173969;23;20331;-77
2023/10/12 04:36:09;;;;;;;15.15;8.18;;;20.10;70.50;;;;;;6184915;23;19900;-75
2023/10/12 04:43:52;;;;;;;18.65;7.90;;;20.10;70.40;;;;;;6185148;23;20013;-76
2023/10/12 04:51:39;;;;;;;18.80;8.32;;;20.00;70.00;;;;;;6184703;23;20064;-77
2023/10/12 04:54:15;;;;;;;18.33;8.55;;;20.00;70.10;;;;;;6184758;23;20054;-76
2023/10/12 04:56:52;;;;;;;16.02;9.02;;;20.00;70.20;;;;;;6184574;23;20008;-75
2023/10/12 04:59:26;;;;;;;20.02;8.90;;;20.00;70.20;;;;;;6184996;23;20072;-77
2023/10/12 05:09:51;;;;;;;18.08;8.10;;;19.90;70.40;;;;;;6199968;23;20078;-76
2023/10/12 05:12:17;;;;;;;20.50;8.52;;;19.90;70.90;;;;;;6214722;23;20004;-77
2023/10/12 05:14:42;;;;;;;15.40;8.43;;;19.90;70.60;;;;;;6214726;23;20453;-76
2023/10/12 05:17:08;;;;;;;23.40;8.98;;;19.90;70.60;;;;;;6215027;23;20005;-76
2023/10/12 05:19:35;;;;;;;17.52;7.90;;;19.90;71.40;;;;;;6214754;23;20035;-76
2023/10/12 05:22:01;;;;;;;15.60;9.15;;;19.90;70.90;;;;;;6215362;23;20024;-76
2023/10/12 05:24:26;;;;;;;16.80;8.93;;;19.80;70.80;;;;;;6227396;23;20056;-76
2023/10/12 05:27:09;;;;;;;16.33;8.85;;;19.80;71.00;;;;;;6225746;23;20041;-76
2023/10/12 05:29:38;;;;;;;16.52;8.35;;;19.80;70.90;;;;;;6215222;23;20024;-78
2023/10/12 05:32:18;;;;;;;15.13;8.75;;;19.70;71.00;;;;;;6214769;23;20001;-76
2023/10/12 05:34:46;;;;;;;13.18;8.57;;;19.60;71.70;;;;;;6187467;23;20009;-77
2023/10/12 05:39:47;;;;;;;19.10;8.85;;;19.60;71.20;;;;;;6213693;23;20020;-71
2023/10/12 05:42:14;;;;;;;23.63;9.43;;;19.70;71.40;;;;;;6214224;23;20008;-69
2023/10/12 05:44:43;;;;;;;15.15;9.07;;;19.60;71.20;;;;;;6213640;23;20403;-72
2023/10/12 05:47:12;;;;;;;18.23;9.18;;;19.60;71.00;;;;;;6214492;23;20051;-73
2023/10/12 05:49:41;;;;;;;21.70;9.25;;;19.70;71.20;;;;;;6214264;23;19996;-71
2023/10/12 05:52:08;;;;;;;17.13;8.65;;;19.80;71.20;;;;;;6214315;23;20082;-71
2023/10/12 05:54:39;;;;;;;21.13;8.57;;;19.80;71.80;;;;;;6215027;23;20460;-75
2023/10/12 05:57:16;;;;;;;18.00;9.05;;;19.80;70.70;;;;;;6214548;23;20079;-73
2023/10/12 05:59:42;;;;;;;21.23;9.25;;;19.80;70.80;;;;;;6214521;23;20009;-72
2023/10/12 06:02:10;;;;;;;17.20;8.70;;;19.70;70.80;;;;;;6214637;23;20043;-73
2023/10/12 06:04:35;;;;;;;18.98;9.40;;;19.70;70.90;;;;;;6214773;23;20016;-70
2023/10/12 06:07:03;;;;;;;15.90;8.98;;;19.70;71.00;;;;;;6214341;23;19997;-71
2023/10/12 06:09:52;;;;;;;18.25;8.63;;;19.70;70.70;;;;;;6213958;23;20020;-70
2023/10/12 06:12:21;;;;;;;15.95;8.05;;;19.80;71.10;;;;;;6213746;23;20104;-71
2023/10/12 06:14:53;;;;;;;18.20;9.25;;;19.80;70.80;;;;;;6214575;23;20086;-72
2023/10/12 06:17:30;;;;;;;16.77;8.48;;;20.00;70.60;;;;;;6214634;23;19997;-72
2023/10/12 06:20:00;;;;;;;18.25;9.13;;;20.10;69.90;;;;;;6214203;23;20506;-72
2023/10/12 06:22:32;;;;;;;15.13;9.63;;;20.30;69.80;;;;;;6214998;23;20327;-72
2023/10/12 06:24:59;;;;;;;14.85;9.60;;;20.50;69.40;;;;;;6214686;23;20469;-76
2023/10/12 06:27:26;;;;;;;17.83;8.80;;;20.70;69.00;;;;;;6214385;23;19997;-73
2023/10/12 06:29:53;;;;;;;21.70;9.43;;;20.80;68.70;;;;;;6213911;23;20103;-74
2023/10/12 06:32:24;;;;;;;18.13;9.07;;;21.00;68.10;;;;;;6214456;23;20080;-73
2023/10/12 06:35:34;;;;;;;17.13;9.15;;;21.10;67.90;;;;;;6212758;23;20024;-74
2023/10/12 06:45:46;;;;;;;19.27;8.30;;;21.70;66.10;;;;;;6193944;23;20012;-70
2023/10/12 06:51:03;;;;;;;19.63;8.68;;;22.00;66.10;;;;;;6213869;23;20051;-73
2023/10/12 06:53:36;;;;;;;18.45;9.27;;;22.20;65.50;;;;;;6216295;23;20088;-73
2023/10/12 07:01:39;;;;;;;22.60;9.63;;;22.60;64.50;;;;;;6216126;23;20106;-73
2023/10/12 07:04:27;;;;;;;24.92;9.95;;;22.70;64.60;;;;;;6215952;23;20059;-71
2023/10/12 07:06:57;;;;;;;16.55;9.43;;;22.60;63.80;;;;;;6216000;23;20028;-71
2023/10/12 07:09:46;;;;;;;24.85;10.20;;;22.60;64.50;;;;;;6215949;23;20363;-73
2023/10/12 07:12:13;;;;;;;22.65;9.27;;;22.70;65.00;;;;;;6215844;23;20000;-76
2023/10/12 07:14:47;;;;;;;19.67;9.70;;;22.90;63.60;;;;;;6215845;23;20392;-73
2023/10/12 07:17:14;;;;;;;26.88;11.75;;;22.90;63.30;;;;;;6216059;23;20015;-72
2023/10/12 07:19:46;;;;;;;26.45;9.45;;;23.00;63.20;;;;;;6215621;23;20032;-72
2023/10/12 07:22:18;;;;;;;20.85;10.05;;;23.10;62.90;;;;;;6215824;23;20008;-72
2023/10/12 07:24:44;;;;;;;20.30;9.98;;;23.00;62.60;;;;;;6216095;23;20005;-73
2023/10/12 07:27:22;;;;;;;26.60;10.32;;;23.00;62.60;;;;;;6215866;23;20446;-71
2023/10/12 07:30:00;;;;;;;18.60;9.10;;;23.00;62.40;;;;;;6216025;23;20004;-72
2023/10/12 07:32:54;;;;;;;27.92;9.32;;;23.10;62.10;;;;;;6216351;23;19997;-72
2023/10/12 07:35:31;;;;;;;23.70;9.52;;;23.00;61.80;;;;;;6216861;23;20132;-71
2023/10/12 07:38:01;;;;;;;19.23;9.18;;;23.00;61.80;;;;;;6229962;23;20411;-71
2023/10/12 07:40:34;;;;;;;20.48;9.07;;;23.00;61.70;;;;;;6234091;23;20095;-72
2023/10/12 07:43:04;;;;;;;16.95;7.97;;;23.00;61.80;;;;;;6217237;23;20071;-73
2023/10/12 07:45:40;;;;;;;18.25;8.07;;;23.00;61.60;;;;;;6215970;23;20458;-72
2023/10/12 07:48:09;;;;;;;13.95;7.47;;;22.90;61.20;;;;;;6216004;23;20005;-71
2023/10/12 07:50:45;;;;;;;18.17;7.55;;;22.90;61.30;;;;;;6216139;23;20082;-72
2023/10/12 07:53:22;;;;;;;16.55;7.68;;;22.90;61.40;;;;;;6215938;23;20000;-72
2023/10/12 07:55:53;;;;;;;19.20;7.97;;;22.80;61.30;;;;;;6215835;23;20005;-72
2023/10/12 07:58:21;;;;;;;22.77;9.07;;;22.70;61.60;;;;;;6215278;23;20007;-74
2023/10/12 08:01:19;;;;;;;21.85;8.38;;;22.70;61.70;;;;;;6215906;23;20008;-75
2023/10/12 08:03:50;;;;;;;21.75;8.18;;;22.60;61.40;;;;;;6215580;23;20542;-74
2023/10/12 08:06:27;;;;;;;22.88;8.38;;;22.60;61.60;;;;;;6215461;23;20005;-74
2023/10/12 08:09:02;;;;;;;26.65;8.23;;;22.50;61.40;;;;;;6215000;23;20001;-75
2023/10/12 08:11:28;;;;;;;16.33;7.82;;;22.50;61.00;;;;;;6215922;23;20016;-75
2023/10/12 08:13:55;;;;;;;25.20;8.10;;;22.40;61.10;;;;;;6215677;23;20009;-74
2023/10/12 08:16:28;;;;;;;18.92;7.25;;;22.40;61.40;;;;;;6214345;23;20012;-74
2023/10/12 08:24:46;;;;;;;16.38;8.27;;;22.40;61.30;;;;;;6215901;23;20028;-72
2023/10/12 08:39:48;;;;;;;15.20;7.68;;;22.60;61.60;;;;;;6216548;23;20027;-72
2023/10/12 08:45:09;;;;;;;18.05;7.88;;;22.60;61.50;;;;;;6216243;23;20329;-72
2023/10/12 08:52:50;;;;;;;22.13;8.68;;;22.70;61.40;;;;;;6215342;23;20091;-72
2023/10/12 08:55:24;;;;;;;18.20;8.25;;;22.70;61.90;;;;;;6214853;23;20460;-72
2023/10/12 08:58:38;;;;;;;19.67;9.25;;;22.80;61.60;;;;;;6215077;23;20072;-73
2023/10/12 09:01:07;;;;;;;21.75;8.88;;;22.90;61.30;;;;;;6215040;23;20005;-73
2023/10/12 09:03:45;;;;;;;16.80;8.80;;;22.90;61.30;;;;;;6214155;23;20437;-73
2023/10/12 09:09:05;;;;;;;28.80;10.40;;;23.10;61.70;;;;;;6191165;23;20024;-72
2023/10/12 09:11:35;;;;;;;20.67;10.75;;;23.10;61.40;;;;;;6215085;23;20001;-72
2023/10/12 09:14:16;;;;;;;20.38;10.60;;;23.20;61.40;;;;;;6214645;23;20008;-71
2023/10/12 09:16:43;;;;;;;19.65;9.75;;;23.20;61.50;;;;;;6214854;23;20005;-72
2023/10/12 09:19:31;;;;;;;22.30;10.05;;;23.30;61.60;;;;;;6215052;23;20035;-73
2023/10/12 09:21:59;;;;;;;20.10;9.38;;;23.30;60.90;;;;;;6188104;23;20351;-72
2023/10/12 09:24:28;;;;;;;20.33;9.65;;;23.40;61.50;;;;;;6214672;23;20005;-69
2023/10/12 09:27:11;;;;;;;22.13;9.98;;;23.50;61.00;;;;;;6214855;23;20391;-74
2023/10/12 09:29:57;;;;;;;22.92;9.43;;;23.50;61.60;;;;;;6187674;23;20383;-76
2023/10/12 09:32:25;;;;;;;17.90;9.13;;;23.60;61.00;;;;;;6214907;23;20032;-76
2023/10/12 09:37:43;;;;;;;17.63;8.68;;;23.70;60.80;;;;;;6215207;23;20012;-72
2023/10/12 09:40:24;;;;;;;25.58;8.93;;;23.80;61.50;;;;;;6215337;23;20016;-76
2023/10/12 09:42:56;;;;;;;34.70;10.40;;;23.90;61.60;;;;;;6215235;23;20455;-85
2023/10/12 09:45:24;;;;;;;43.03;9.50;;;23.90;61.50;;;;;;6216260;23;20046;-82
2023/10/12 09:47:57;;;;;;;23.67;9.15;;;24.00;61.40;;;;;;6221342;23;20023;-81
2023/10/12 09:50:27;;;;;;;101.07;15.00;;;24.10;61.50;;;;;;6226011;23;20084;-78
2023/10/12 09:52:57;;;;;;;21.08;8.95;;;24.30;61.30;;;;;;6215257;23;20007;-79
2023/10/12 09:55:32;;;;;;;14.27;7.80;;;24.30;61.20;;;;;;6215783;23;20009;-79
2023/10/12 10:00:55;;;;;;;17.90;8.27;;;24.40;60.70;;;;;;6215378;23;20028;-81
2023/10/12 10:03:34;;;;;;;22.27;8.57;;;24.50;60.80;;;;;;6215359;23;20008;-80
2023/10/12 10:06:11;;;;;;;16.50;7.43;;;24.60;61.40;;;;;;6215247;23;20008;-85
2023/10/12 10:08:45;;;;;;;18.50;7.18;;;24.70;61.50;;;;;;6216112;23;20006;-82
2023/10/12 10:11:12;;;;;;;18.48;8.07;;;24.70;61.40;;;;;;6216581;23;20004;-85
2023/10/12 10:13:52;;;;;;;17.60;8.43;;;24.70;60.50;;;;;;6213306;23;20154;-86
2023/10/12 10:16:19;;;;;;;15.45;7.30;;;24.80;60.60;;;;;;6215466;23;20004;-85
2023/10/12 10:18:46;;;;;;;19.00;7.47;;;24.90;60.80;;;;;;6214882;23;20004;-86
2023/10/12 10:21:13;;;;;;;17.58;7.63;;;25.00;60.70;;;;;;6217789;23;20005;-87
2023/10/12 10:23:48;;;;;;;16.75;7.13;;;25.10;60.40;;;;;;6215612;23;20038;-85
2023/10/12 10:26:30;;;;;;;17.08;8.40;;;25.10;60.00;;;;;;6216867;23;20465;-85
2023/10/12 10:29:07;;;;;;;15.95;7.95;;;25.20;59.30;;;;;;6226750;23;20001;-88
2023/10/12 10:31:43;;;;;;;22.10;7.85;;;25.30;59.40;;;;;;6218507;23;20001;-85
2023/10/12 10:34:12;;;;;;;;;;;25.40;59.20;;;;;;6225848;23;19996;-84
2023/10/12 10:36:37;;;;;;;19.48;7.82;;;25.40;57.70;;;;;;6218520;23;20216;-84
2023/10/12 10:41:54;;;;;;;14.95;7.38;;;25.60;58.30;;;;;;6218895;23;20013;-86
2023/10/12 10:44:26;;;;;;;13.30;6.82;;;25.70;58.00;;;;;;6231765;23;20020;-83
2023/10/12 10:47:07;;;;;;;19.73;7.30;;;25.70;57.90;;;;;;6235426;23;20439;-84
2023/10/12 10:49:33;;;;;;;17.38;6.68;;;25.80;57.50;;;;;;6218808;23;20027;-84
2023/10/12 10:54:37;;;;;;;17.02;6.57;;;25.90;56.80;;;;;;6218182;23;20346;-85
2023/10/12 10:57:24;;;;;;;15.85;6.50;;;26.10;56.60;;;;;;6217239;23;20021;-84
2023/10/12 10:59:50;;;;;;;14.57;7.00;;;26.20;55.60;;;;;;6217178;23;20012;-85
2023/10/12 11:02:16;;;;;;;16.70;6.88;;;26.30;55.80;;;;;;6216646;23;20004;-85
2023/10/12 11:04:44;;;;;;;20.67;7.47;;;26.30;55.60;;;;;;6217072;23;20004;-86
2023/10/12 11:07:11;;;;;;;21.67;7.25;;;26.40;55.60;;;;;;6189933;23;20011;-84
2023/10/12 11:12:31;;;;;;;18.95;6.95;;;26.50;55.60;;;;;;6216120;23;20004;-86
2023/10/12 11:15:01;;;;;;;15.07;7.32;;;26.60;55.80;;;;;;6217187;23;20012;-84
2023/10/12 11:17:40;;;;;;;14.48;6.78;;;26.70;55.40;;;;;;6217102;23;20009;-85
2023/10/12 11:20:27;;;;;;;17.80;7.35;;;26.70;55.10;;;;;;6217942;23;20020;-84
2023/10/12 11:23:02;;;;;;;15.20;7.10;;;26.80;55.10;;;;;;6216532;23;20009;-80
2023/10/12 11:25:28;;;;;;;13.60;7.10;;;26.80;54.90;;;;;;6216615;23;20008;-81
2023/10/12 11:27:53;;;;;;;20.70;7.03;;;26.90;54.60;;;;;;6216235;23;19997;-79
2023/10/12 11:30:42;;;;;;;16.77;7.00;;;26.90;54.70;;;;;;6217142;23;20426;-80
2023/10/12 11:33:09;;;;;;;16.35;6.47;;;27.00;54.30;;;;;;6216529;23;20054;-82
2023/10/12 11:35:43;;;;;;;16.92;6.88;;;27.10;53.40;;;;;;6190012;23;20327;-81
2023/10/12 11:38:19;;;;;;;16.58;6.47;;;27.20;53.30;;;;;;6214482;23;20091;-79
2023/10/12 11:40:52;;;;;;;14.38;7.00;;;27.20;53.20;;;;;;6215892;23;20016;-82
2023/10/12 11:43:25;;;;;;;13.37;6.77;;;27.30;53.00;;;;;;6216256;23;19996;-76
2023/10/12 11:46:01;;;;;;;13.65;6.95;;;27.40;52.90;;;;;;6215546;23;20054;-76
2023/10/12 11:48:28;;;;;;;10.38;5.40;;;27.50;52.90;;;;;;6215716;23;20001;-77
2023/10/12 11:50:55;;;;;;;11.95;5.85;;;27.50;51.80;;;;;;6215716;23;20023;-77
2023/10/12 11:53:21;;;;;;;15.48;6.05;;;27.60;51.80;;;;;;6215754;23;20012;-76
2023/10/12 11:55:50;;;;;;;12.77;5.80;;;27.70;50.60;;;;;;6216398;23;20000;-80
2023/10/12 11:58:19;;;;;;;16.25;6.30;;;27.80;49.90;;;;;;6216401;23;20057;-76
2023/10/12 12:00:48;;;;;;;10.77;4.95;;;27.80;49.70;;;;;;6216289;23;20013;-76
2023/10/12 12:03:15;;;;;;;9.45;5.25;;;27.80;48.90;;;;;;6215632;23;19997;-74
2023/10/12 12:05:43;;;;;;;11.00;5.50;;;27.90;48.70;;;;;;6215819;23;20008;-76
2023/10/12 12:08:17;;;;;;;10.95;5.65;;;27.90;49.20;;;;;;6215212;23;20001;-74
2023/10/12 12:13:16;;;;;;;14.85;5.95;;;28.00;48.90;;;;;;6216471;23;20036;-77
2023/10/12 12:15:46;;;;;;;10.38;5.72;;;28.00;48.60;;;;;;6215446;23;20099;-76
2023/10/12 12:18:19;;;;;;;11.13;5.38;;;28.10;47.90;;;;;;6215548;23;20089;-76
2023/10/12 12:20:52;;;;;;;;;;;28.20;47.60;;;;;;6215525;23;20534;-77
2023/10/12 12:23:19;;;;;;;10.82;4.85;;;28.30;45.80;;;;;;6215116;23;19904;-77
2023/10/12 12:25:45;;;;;;;8.55;4.80;;;28.40;48.00;;;;;;6212797;23;20005;-76
2023/10/12 12:28:16;;;;;;;15.45;5.45;;;28.40;47.60;;;;;;6214705;23;20052;-77
2023/10/12 12:30:46;;;;;;;10.73;5.43;;;28.40;47.70;;;;;;6215769;23;20008;-78
2023/10/12 12:33:16;;;;;;;10.32;4.40;;;28.50;47.10;;;;;;6215430;23;20004;-76
2023/10/12 12:35:45;;;;;;;11.57;5.00;;;28.50;45.90;;;;;;6215255;23;20288;-79
2023/10/12 12:38:25;;;;;;;14.68;4.43;;;28.50;45.50;;;;;;6215054;23;20005;-76
2023/10/12 12:40:52;;;;;;;8.35;4.60;;;28.50;45.20;;;;;;6215359;23;20008;-77
2023/10/12 12:43:18;;;;;;;9.95;4.35;;;28.60;45.50;;;;;;6214892;23;20439;-78
2023/10/12 12:45:43;;;;;;;13.48;4.45;;;28.60;45.00;;;;;;6215238;23;20075;-77
2023/10/12 12:48:09;;;;;;;10.73;4.28;;;28.60;44.60;;;;;;6214583;23;20024;-76
2023/10/12 12:50:35;;;;;;;10.18;4.35;;;28.60;44.20;;;;;;6214129;23;20112;-77
2023/10/12 12:53:01;;;;;;;12.18;4.30;;;28.60;44.10;;;;;;6214899;23;20112;-77
2023/10/12 12:55:28;;;;;;;10.57;4.60;;;28.60;44.00;;;;;;6214914;23;19997;-77
2023/10/12 12:57:58;;;;;;;10.60;4.20;;;28.70;44.00;;;;;;6214139;23;20009;-77
2023/10/12 13:00:25;;;;;;;12.60;4.38;;;28.70;43.80;;;;;;6214176;23;20513;-76
2023/10/12 13:02:50;;;;;;;12.70;4.75;;;28.80;44.80;;;;;;6213978;23;20442;-77
2023/10/12 13:05:16;;;;;;;11.88;5.22;;;28.80;45.00;;;;;;6215389;23;20015;-77
2023/10/12 13:07:46;;;;;;;12.18;5.43;;;28.90;44.90;;;;;;6216919;23;19996;-77
2023/10/12 13:10:12;;;;;;;14.63;4.63;;;29.00;44.80;;;;;;6215142;23;20020;-78
2023/10/12 13:12:40;;;;;;;8.95;4.07;;;29.00;44.60;;;;;;6215356;23;20020;-77
2023/10/12 13:15:10;;;;;;;11.63;4.32;;;29.00;44.00;;;;;;6213477;23;20009;-78
2023/10/12 13:17:39;;;;;;;8.25;4.60;;;29.10;43.60;;;;;;6214973;23;20415;-79
2023/10/12 13:20:07;;;;;;;13.38;4.57;;;29.10;44.00;;;;;;6214525;23;20016;-77
2023/10/12 13:22:33;;;;;;;19.33;6.60;;;29.10;43.90;;;;;;6215218;23;20050;-77
2023/10/12 13:24:59;;;;;;;20.30;8.00;;;29.10;45.80;;;;;;6214756;23;20435;-77
2023/10/12 13:27:27;;;;;;;16.70;8.23;;;29.10;50.40;;;;;;6187868;23;20032;-77
2023/10/12 13:30:00;;;;;;;18.80;8.45;;;29.10;52.10;;;;;;6215058;23;20008;-77
2023/10/12 13:32:26;;;;;;;18.20;7.97;;;29.10;52.30;;;;;;6215257;23;20005;-76
2023/10/12 13:34:57;;;;;;;15.85;7.35;;;29.10;53.50;;;;;;6215525;23;20465;-80
2023/10/12 13:37:30;;;;;;;16.20;8.63;;;29.10;54.40;;;;;;6215623;23;20067;-82
2023/10/12 13:39:57;;;;;;;17.53;9.13;;;29.10;54.90;;;;;;6215268;23;20021;-82
2023/10/12 13:42:23;;;;;;;19.00;8.20;;;29.00;55.70;;;;;;6215392;23;20123;-81
2023/10/12 13:44:50;;;;;;;18.85;8.13;;;29.00;56.40;;;;;;6215386;23;20431;-82
2023/10/12 13:47:16;;;;;;;17.55;8.88;;;29.00;56.70;;;;;;6215231;23;20280;-82
2023/10/12 13:49:42;;;;;;;18.38;8.95;;;28.90;56.90;;;;;;6215207;23;20012;-82
2023/10/12 13:52:09;;;;;;;14.55;8.50;;;28.90;57.00;;;;;;6214952;23;20067;-82
2023/10/12 13:54:36;;;;;;;19.40;9.05;;;28.90;57.20;;;;;;6213124;23;20013;-82
2023/10/12 13:57:02;;;;;;;17.05;8.60;;;28.90;57.20;;;;;;6215167;23;19997;-81
2023/10/12 13:59:28;;;;;;;15.38;8.25;;;28.80;57.20;;;;;;6214780;23;20008;-81
2023/10/12 14:01:56;;;;;;;21.98;8.95;;;28.80;57.50;;;;;;6214666;23;20001;-82
2023/10/12 14:04:33;;;;;;;23.45;8.65;;;28.80;57.60;;;;;;6214875;23;20005;-82
2023/10/12 14:07:03;;;;;;;16.60;8.18;;;28.80;57.80;;;;;;6213517;23;20009;-81
2023/10/12 14:09:31;;;;;;;18.73;8.30;;;28.80;57.80;;;;;;6214680;23;20051;-81
2023/10/12 14:11:57;;;;;;;16.52;8.52;;;28.70;57.70;;;;;;6215330;23;20437;-76
2023/10/12 14:14:27;;;;;;;19.23;8.85;;;28.70;57.70;;;;;;6214471;23;20030;-76
2023/10/12 14:16:53;;;;;;;22.33;8.32;;;28.70;58.00;;;;;;6187861;23;20005;-76
2023/10/12 14:19:23;;;;;;;19.63;9.02;;;28.70;57.90;;;;;;6214433;23;20330;-73
2023/10/12 14:21:52;;;;;;;16.05;8.65;;;28.70;58.00;;;;;;6214215;23;20012;-76
2023/10/12 14:24:24;;;;;;;18.67;8.55;;;28.70;58.10;;;;;;6214377;23;20082;-76
2023/10/12 14:26:51;;;;;;;21.50;8.55;;;28.70;58.20;;;;;;6213986;23;20004;-77
2023/10/12 14:29:18;;;;;;;16.20;8.52;;;28.70;58.30;;;;;;6214959;23;20086;-78
2023/10/12 14:31:45;;;;;;;20.92;7.85;;;28.70;58.20;;;;;;6213887;23;20431;-76
2023/10/12 14:34:13;;;;;;;24.75;8.88;;;28.70;58.20;;;;;;6212416;23;20012;-76
2023/10/12 14:36:41;;;;;;;16.02;8.63;;;28.60;58.20;;;;;;6207925;23;20008;-74
2023/10/12 14:39:15;;;;;;;22.38;9.32;;;28.60;58.40;;;;;;6211043;23;20004;-75
2023/10/12 14:41:41;;;;;;;29.77;10.85;;;28.60;58.30;;;;;;6214054;23;20044;-74
2023/10/12 14:56:23;;;;;;;25.05;12.57;;;28.40;59.00;;;;;;6234043;23;20073;-80
2023/10/12 14:58:50;;;;;;;30.85;12.10;;;28.30;59.20;;;;;;6213176;23;20135;-80
2023/10/12 15:01:20;;;;;;;34.58;13.70;;;28.20;59.20;;;;;;6212799;23;20005;-79
2023/10/12 15:03:45;;;;;;;21.65;10.23;;;28.20;59.30;;;;;;6213872;23;20000;-79
2023/10/12 15:06:12;;;;;;;21.77;9.40;;;28.10;59.50;;;;;;6185086;23;20015;-79
2023/10/12 15:08:39;;;;;;;21.08;9.32;;;28.10;59.60;;;;;;6212521;23;19997;-80